Time;durP1;ratioP1;P1;durP2;ratioP2;P2;SDS_P1;SDS_P2;PMS_P1;PMS_P2;Temp;Humidity;BMP_temperature;BMP_pressure;BME280_temperature;BME280_humidity;BME280_pressure;Samples;Min_cycle;Max_cycle;Signal;HPM_P1;HPM_P2
2023/06/22 00:00:54;;;;;;;5.57;4.75;;;;;;;28.50;40.71;101491.84;143726;598;49002;-76
2023/06/22 00:03:22;;;;;;;6.15;5.00;;;;;;;28.51;40.95;101487.97;143726;611;47931;-75
2023/06/22 00:05:48;;;;;;;7.45;4.70;;;;;;;28.49;41.27;101484.69;143723;592;48924;-75
2023/06/22 00:08:15;;;;;;;6.25;4.82;;;;;;;28.48;41.14;101491.31;143730;582;47002;-76
2023/06/22 00:10:42;;;;;;;5.03;4.60;;;;;;;28.47;41.22;101481.41;143719;581;50002;-76
2023/06/22 00:13:09;;;;;;;7.07;5.35;;;;;;;28.44;41.41;101485.59;143727;575;47016;-75
2023/06/22 00:15:36;;;;;;;6.82;4.95;;;;;;;28.41;41.43;101494.47;143727;574;47006;-75
2023/06/22 00:18:03;;;;;;;5.20;4.50;;;;;;;28.39;41.16;101496.72;143731;696;47004;-76
2023/06/22 00:20:29;;;;;;;7.10;4.80;;;;;;;28.37;40.79;101498.97;143727;585;47010;-76
2023/06/22 00:22:57;;;;;;;5.60;5.10;;;;;;;28.37;40.49;101496.19;143727;623;47004;-76
2023/06/22 00:25:24;;;;;;;6.05;4.28;;;;;;;28.37;39.39;101493.44;143725;684;48000;-76
2023/06/22 00:27:50;;;;;;;5.95;4.32;;;;;;;28.37;39.11;101485.13;143732;653;47004;-75
2023/06/22 00:30:18;;;;;;;4.87;4.37;;;;;;;28.36;38.65;101488.22;143722;581;50008;-76
2023/06/22 00:32:45;;;;;;;6.03;4.53;;;;;;;28.37;38.52;101485.13;143732;641;47004;-75
2023/06/22 00:35:12;;;;;;;5.45;4.70;;;;;;;28.36;38.79;101489.03;143727;710;49006;-75
2023/06/22 00:37:42;;;;;;;4.93;4.45;;;;;;;28.36;38.90;101494.56;143729;577;47004;-76
2023/06/22 00:40:11;;;;;;;6.47;4.47;;;;;;;28.37;38.41;101498.16;143712;588;49004;-76
2023/06/22 00:42:38;;;;;;;5.45;4.95;;;;;;;28.36;38.60;101494.56;143728;582;47004;-76
2023/06/22 00:45:06;;;;;;;5.18;4.20;;;;;;;28.36;37.87;101494.56;143728;634;46008;-75
2023/06/22 00:47:36;;;;;;;4.47;4.07;;;;;;;28.35;37.79;101492.91;143730;597;47011;-76
2023/06/22 00:50:03;;;;;;;5.12;4.62;;;;;;;28.36;38.12;101493.75;143726;588;47926;-76
2023/06/22 00:52:31;;;;;;;5.28;4.47;;;;;;;28.36;37.31;101504.78;143728;581;47005;-75
2023/06/22 00:55:01;;;;;;;5.22;4.68;;;;;;;28.35;38.00;101500.38;143727;574;47006;-73
2023/06/22 00:57:28;;;;;;;4.90;4.50;;;;;;;28.33;37.46;101495.16;143735;638;47002;-71
2023/06/22 00:59:55;;;;;;;5.25;4.70;;;;;;;28.34;37.82;101496.78;143730;585;46008;-73
2023/06/22 01:02:22;;;;;;;8.00;4.53;;;;;;;28.33;38.07;101488.81;143730;608;47004;-75
2023/06/22 01:04:48;;;;;;;5.30;4.57;;;;;;;28.33;38.75;101492.38;143730;636;47006;-75
2023/06/22 01:07:44;;;;;;;5.07;4.57;;;;;;;28.34;38.69;101491.25;143731;573;47004;-74
2023/06/22 01:10:39;;;;;;;6.07;4.97;;;;;;;28.34;38.95;101484.94;143726;584;47010;-73
2023/06/22 01:13:12;;;;;;;5.55;4.90;;;;;;;28.34;39.28;101482.16;143728;572;47004;-75
2023/06/22 01:15:45;;;;;;;5.65;5.12;;;;;;;28.34;39.59;101496.78;143718;574;47007;-76
2023/06/22 01:18:14;;;;;;;4.72;4.30;;;;;;;28.33;39.56;101492.38;143732;575;47010;-75
2023/06/22 01:20:41;;;;;;;5.80;4.78;;;;;;;28.29;39.99;101489.41;143726;594;48926;-75
2023/06/22 01:23:33;;;;;;;5.78;4.85;;;;;;;28.27;39.62;101488.88;143729;609;47004;-75
2023/06/22 01:26:22;;;;;;;5.70;4.75;;;;;;;28.27;39.80;101490.84;143728;593;47006;-76
2023/06/22 01:28:51;;;;;;;5.50;4.85;;;;;;;28.27;40.25;101485.31;143729;637;47002;-75
2023/06/22 01:31:24;;;;;;;5.68;5.12;;;;;;;28.24;40.58;101483.97;143723;580;48011;-76
2023/06/22 01:34:05;;;;;;;5.67;4.80;;;;;;;28.23;41.16;101490.63;143726;636;47004;-76
2023/06/22 01:36:33;;;;;;;8.15;5.15;;;;;;;28.22;41.34;101480.69;143721;612;48006;-75
2023/06/22 01:39:00;;;;;;;7.35;5.80;;;;;;;28.21;41.13;101481.81;143729;592;47002;-75
2023/06/22 01:41:29;;;;;;;7.53;4.90;;;;;;;28.19;41.18;101475.78;143726;655;47008;-75
2023/06/22 01:43:56;;;;;;;5.47;4.97;;;;;;;28.19;41.20;101469.41;143724;609;48003;-75
2023/06/22 01:46:24;;;;;;;5.87;5.32;;;;;;;28.17;40.67;101472.50;143722;612;47006;-75
2023/06/22 01:48:51;;;;;;;5.97;5.37;;;;;;;28.14;40.87;101479.44;143730;581;47004;-75
2023/06/22 01:51:18;;;;;;;6.20;5.30;;;;;;;28.13;41.29;101475.03;143727;695;47010;-74
2023/06/22 01:53:44;;;;;;;7.40;5.43;;;;;;;28.14;41.16;101475.84;143725;585;47004;-75
2023/06/22 01:56:11;;;;;;;10.77;5.68;;;;;;;28.11;41.25;101474.50;143727;615;47006;-75
2023/06/22 01:58:45;;;;;;;7.37;5.45;;;;;;;28.09;41.24;101476.72;143729;579;47004;-75
2023/06/22 02:01:13;;;;;;;6.22;5.62;;;;;;;28.08;41.01;101480.59;143721;610;47011;-75
2023/06/22 02:03:53;;;;;;;5.87;5.35;;;;;;;28.06;41.51;101477.31;143727;604;47004;-75
2023/06/22 02:06:36;;;;;;;6.70;5.72;;;;;;;28.07;41.70;101478.13;143724;567;47006;-76
2023/06/22 02:09:12;;;;;;;5.97;5.37;;;;;;;28.06;41.49;101477.31;143730;631;47002;-76
2023/06/22 02:11:41;;;;;;;6.10;5.30;;;;;;;28.05;40.83;101475.66;143725;604;47010;-76
2023/06/22 02:14:08;;;;;;;6.93;5.32;;;;;;;28.05;41.10;101481.19;143727;575;47004;-76
2023/06/22 02:16:37;;;;;;;9.25;5.93;;;;;;;28.05;40.91;101475.66;143720;596;48006;-75
2023/06/22 02:19:03;;;;;;;6.03;5.43;;;;;;;28.05;40.33;101483.16;143731;593;47009;-76
2023/06/22 02:21:31;;;;;;;5.53;4.78;;;;;;;28.04;40.35;101484.25;143723;633;48008;-76
2023/06/22 02:23:57;;;;;;;7.55;5.40;;;;;;;28.03;40.03;101482.62;143728;586;47004;-75
2023/06/22 02:26:25;;;;;;;10.45;5.12;;;;;;;28.05;39.32;101480.38;143720;675;47006;-75
2023/06/22 02:28:52;;;;;;;6.78;5.37;;;;;;;28.07;39.20;101487.25;143731;573;47014;-75
2023/06/22 02:31:19;;;;;;;9.32;5.22;;;;;;;28.06;39.24;101482.84;143726;600;47011;-75
2023/06/22 02:33:46;;;;;;;7.57;5.72;;;;;;;28.07;38.79;101489.16;143729;649;47004;-75
2023/06/22 02:36:12;;;;;;;7.72;5.30;;;;;;;28.04;38.50;101492.56;143729;602;46007;-75
2023/06/22 02:38:47;;;;;;;10.50;5.25;;;;;;;27.99;38.56;101496.19;143730;573;47004;-76
2023/06/22 02:41:18;;;;;;;6.28;5.22;;;;;;;28.02;38.33;101506.62;143728;605;47008;-75
2023/06/22 02:43:45;;;;;;;6.85;5.78;;;;;;;28.05;38.88;101506.03;143728;582;47005;-75
2023/06/22 02:46:12;;;;;;;8.18;5.93;;;;;;;28.06;39.48;101510.44;143727;597;47006;-75
2023/06/22 02:48:40;;;;;;;7.28;5.93;;;;;;;28.05;39.98;101508.00;143730;578;47002;-75
2023/06/22 02:51:07;;;;;;;10.65;5.65;;;;;;;28.03;39.84;101511.03;143723;584;47010;-76
2023/06/22 02:53:33;;;;;;;7.47;5.82;;;;;;;28.02;40.23;101512.16;143727;588;47004;-76
2023/06/22 02:56:01;;;;;;;11.40;5.60;;;;;;;28.02;40.02;101520.44;143726;654;48016;-75
2023/06/22 02:58:28;;;;;;;8.57;6.07;;;;;;;28.00;40.10;101517.16;143732;586;47004;-76
2023/06/22 03:00:54;;;;;;;8.00;5.57;;;;;;;27.97;40.43;101518.59;143728;621;47010;-76
2023/06/22 03:03:21;;;;;;;6.32;5.62;;;;;;;27.97;40.30;101528.81;143728;605;47004;-75
2023/06/22 03:05:47;;;;;;;8.20;5.75;;;;;;;27.95;40.44;101520.81;143727;591;47006;-75
2023/06/22 03:08:14;;;;;;;8.35;6.43;;;;;;;27.92;40.23;101526.13;143731;573;47002;-75
2023/06/22 03:10:40;;;;;;;7.45;5.78;;;;;;;27.90;40.20;101517.31;143719;640;51002;-75
2023/06/22 03:13:07;;;;;;;16.50;6.12;;;;;;;27.88;40.39;101520.38;143731;573;47002;-75
2023/06/22 03:15:33;;;;;;;9.32;5.68;;;;;;;27.88;40.94;101517.63;143720;648;48006;-76
2023/06/22 03:17:59;;;;;;;11.43;6.22;;;;;;;27.86;40.87;101517.09;143730;603;47002;-76
2023/06/22 03:20:27;;;;;;;9.90;6.47;;;;;;;27.86;40.98;101525.37;143725;617;48009;-76
2023/06/22 03:22:53;;;;;;;9.50;5.82;;;;;;;27.84;41.05;101525.66;143724;592;48931;-76
2023/06/22 03:25:19;;;;;;;7.43;5.55;;;;;;;27.84;41.01;101531.19;143726;591;47006;-76
2023/06/22 03:27:45;;;;;;;9.25;5.70;;;;;;;27.84;41.48;101524.84;143728;601;48003;-76
2023/06/22 03:30:12;;;;;;;7.62;5.90;;;;;;;27.84;41.33;101508.28;143726;627;47008;-77
2023/06/22 03:32:39;;;;;;;11.65;9.13;;;;;;;27.86;41.00;101524.53;143726;598;47014;-75
2023/06/22 03:35:06;;;;;;;13.70;12.10;;;;;;;27.88;41.10;101525.06;143730;604;47006;-76
2023/06/22 03:37:32;;;;;;;13.70;10.48;;;;;;;27.89;40.21;101529.47;143722;590;47002;-76
2023/06/22 03:39:59;;;;;;;23.58;10.77;;;;;;;27.90;39.97;101528.34;143724;597;47008;-76
2023/06/22 03:42:26;;;;;;;13.88;9.75;;;;;;;27.90;40.22;101518.13;143720;595;48004;-76
2023/06/22 03:44:52;;;;;;;13.88;9.68;;;;;;;27.92;40.58;101523.34;143728;584;47925;-76
2023/06/22 03:47:19;;;;;;;17.30;9.50;;;;;;;27.90;40.79;101526.41;143733;601;47013;-75
2023/06/22 03:49:45;;;;;;;12.52;9.15;;;;;;;27.89;41.53;101523.94;143727;608;47008;-77
2023/06/22 03:52:12;;;;;;;10.05;8.50;;;;;;;27.89;41.31;101533.03;143722;581;49930;-76
2023/06/22 03:54:38;;;;;;;14.15;9.20;;;;;;;27.89;41.51;101527.50;143728;573;47924;-76
2023/06/22 03:57:05;;;;;;;9.57;7.95;;;;;;;27.88;41.25;101533.34;143729;583;47002;-76
2023/06/22 03:59:32;;;;;;;12.65;7.97;;;;;;;27.87;41.83;101528.94;143728;580;47010;-76
2023/06/22 04:01:58;;;;;;;13.35;7.97;;;;;;;27.87;41.98;101534.47;143726;581;48002;-76
2023/06/22 04:04:25;;;;;;;10.93;6.55;;;;;;;27.84;41.33;101539.47;143723;582;47006;-76
2023/06/22 04:06:51;;;;;;;11.23;6.78;;;;;;;27.85;41.57;101534.78;143726;613;48002;-75
2023/06/22 04:09:18;;;;;;;14.95;7.00;;;;;;;27.83;41.94;101524.00;143729;600;47008;-75
2023/06/22 04:11:44;;;;;;;10.35;6.07;;;;;;;27.84;41.71;101522.91;143728;597;47004;-76
2023/06/22 04:14:10;;;;;;;12.18;6.62;;;;;;;27.84;42.56;101522.09;143728;586;47924;-75
2023/06/22 04:16:37;;;;;;;10.68;6.50;;;;;;;27.84;42.37;101522.09;143730;585;48000;-75
2023/06/22 04:19:03;;;;;;;11.18;7.15;;;;;;;27.84;42.65;101524.84;143727;603;47010;-75
2023/06/22 04:21:29;;;;;;;12.68;6.95;;;;;;;27.83;42.69;101534.25;143724;579;48008;-75
2023/06/22 04:23:56;;;;;;;11.10;6.60;;;;;;;27.82;42.94;101529.84;143728;586;48006;-76
2023/06/22 04:26:22;;;;;;;13.85;8.70;;;;;;;27.81;42.72;101534.53;143726;649;48009;-76
2023/06/22 04:28:51;;;;;;;16.30;7.43;;;;;;;27.82;41.84;101530.66;143723;623;47010;-76
2023/06/22 04:31:21;;;;;;;10.57;6.95;;;;;;;27.87;41.32;101537.22;143730;573;47004;-76
2023/06/22 04:33:47;;;;;;;9.65;6.35;;;;;;;27.88;41.32;101542.47;143728;609;47006;-76
2023/06/22 04:36:13;;;;;;;9.23;5.65;;;;;;;27.89;41.14;101546.84;143732;581;47004;-76
2023/06/22 04:38:40;;;;;;;10.50;5.95;;;;;;;27.89;41.10;101538.56;143730;610;47926;-75
2023/06/22 04:41:07;;;;;;;7.12;5.40;;;;;;;27.91;40.76;101541.03;143728;585;48004;-75
2023/06/22 04:43:34;;;;;;;8.55;5.87;;;;;;;27.96;40.62;101543.75;143732;607;47006;-76
2023/06/22 04:46:03;;;;;;;8.75;6.45;;;;;;;27.98;41.15;101550.59;143728;595;49002;-75
2023/06/22 04:48:32;;;;;;;9.10;6.05;;;;;;;28.01;41.67;101556.66;143729;597;47008;-77
2023/06/22 04:51:04;;;;;;;15.82;6.32;;;;;;;28.02;42.40;101547.25;143725;573;49004;-76
2023/06/22 04:53:31;;;;;;;12.95;6.95;;;;;;;28.02;42.56;101552.78;143727;674;47006;-76
2023/06/22 04:55:57;;;;;;;13.75;7.32;;;;;;;28.03;42.95;101548.91;143733;608;47004;-75
2023/06/22 04:58:26;;;;;;;15.40;6.85;;;;;;;28.02;43.25;101550.00;143731;585;47009;-75
2023/06/22 05:00:53;;;;;;;11.45;6.22;;;;;;;28.03;43.21;101551.66;143724;601;48004;-77
2023/06/22 05:03:19;;;;;;;13.73;6.95;;;;;;;28.02;43.65;101553.59;143731;585;46924;-76
2023/06/22 05:05:46;;;;;;;17.77;7.28;;;;;;;28.05;43.91;101557.72;143731;574;47004;-76
2023/06/22 05:08:13;;;;;;;12.43;6.15;;;;;;;28.05;44.10;101553.00;143728;568;47010;-76
2023/06/22 05:10:39;;;;;;;11.15;6.40;;;;;;;28.06;43.82;101565.69;143725;572;48002;-76
2023/06/22 05:13:06;;;;;;;12.43;6.57;;;;;;;28.08;43.28;101576.41;143731;597;47006;-76
2023/06/22 05:15:36;;;;;;;10.10;6.47;;;;;;;28.10;43.62;101571.44;143730;569;47004;-76
2023/06/22 05:18:05;;;;;;;14.43;7.18;;;;;;;28.10;42.46;101576.97;143723;590;47926;-76
2023/06/22 05:20:32;;;;;;;14.15;7.00;;;;;;;28.12;42.68;101574.75;143724;577;49002;-75
2023/06/22 05:22:58;;;;;;;12.90;7.70;;;;;;;28.13;42.54;101584.66;143731;610;47006;-76
2023/06/22 05:25:25;;;;;;;15.68;8.00;;;;;;;28.13;42.73;101576.37;143730;588;48002;-76
2023/06/22 05:27:51;;;;;;;9.40;7.57;;;;;;;28.16;42.08;101588.78;143730;589;47926;-75
2023/06/22 05:30:18;;;;;;;11.20;7.10;;;;;;;28.17;42.15;101591.25;143724;689;49010;-76
2023/06/22 05:32:44;;;;;;;12.35;6.35;;;;;;;28.20;42.62;101587.06;143729;659;47006;-76
2023/06/22 05:35:11;;;;;;;11.23;6.05;;;;;;;28.21;42.45;101584.03;143729;595;47002;-76
2023/06/22 05:37:37;;;;;;;8.18;6.43;;;;;;;28.24;43.43;101586.16;143727;603;47010;-76
2023/06/22 05:40:04;;;;;;;10.85;6.00;;;;;;;28.28;44.43;101592.75;143731;584;47002;-76
2023/06/22 05:42:31;;;;;;;13.35;6.22;;;;;;;28.32;44.77;101605.97;143724;596;46924;-75
2023/06/22 05:44:58;;;;;;;10.35;6.50;;;;;;;28.37;45.79;101597.62;143730;573;48000;-76
2023/06/22 05:47:25;;;;;;;12.77;7.70;;;;;;;28.41;44.97;101604.19;143730;628;47010;-74
2023/06/22 05:49:51;;;;;;;10.55;7.90;;;;;;;28.42;45.08;101598.34;143727;573;48002;-76
2023/06/22 05:52:18;;;;;;;11.90;7.40;;;;;;;28.46;44.89;101601.34;143731;586;47006;-75
2023/06/22 05:54:45;;;;;;;16.73;7.55;;;;;;;28.51;44.49;101603.19;143736;566;49002;-73
2023/06/22 05:57:13;;;;;;;12.65;7.35;;;;;;;28.54;44.28;101608.12;143735;634;46010;-74
2023/06/22 05:59:39;;;;;;;16.48;8.32;;;;;;;28.59;44.13;101619.09;143736;580;46002;-77
2023/06/22 06:02:06;;;;;;;13.70;7.55;;;;;;;28.65;43.82;101617.09;143730;589;47006;-77
2023/06/22 06:04:33;;;;;;;12.85;8.57;;;;;;;28.70;43.84;101608.72;143733;608;47002;-77
2023/06/22 06:06:59;;;;;;;17.65;7.70;;;;;;;28.74;44.30;101604.28;143717;584;49011;-77
2023/06/22 06:09:25;;;;;;;12.43;7.32;;;;;;;28.78;44.13;101604.47;143730;612;47004;-77
2023/06/22 06:11:52;;;;;;;13.27;7.40;;;;;;;28.80;44.67;101610.53;143730;575;47006;-77
2023/06/22 06:14:18;;;;;;;10.50;7.18;;;;;;;28.81;44.69;101601.91;143733;670;47004;-77
2023/06/22 06:16:44;;;;;;;15.68;7.47;;;;;;;28.84;44.62;101614.34;143732;585;47010;-77
2023/06/22 06:19:10;;;;;;;15.05;7.32;;;;;;;28.87;44.48;101614.56;143727;608;48930;-76
2023/06/22 06:21:37;;;;;;;22.55;6.80;;;;;;;28.91;43.78;101614.75;143732;583;46018;-77
2023/06/22 06:24:04;;;;;;;12.40;6.20;;;;;;;28.95;44.10;101609.44;143733;702;47002;-77
2023/06/22 06:26:32;;;;;;;8.80;6.87;;;;;;;28.97;43.28;101613.56;143728;577;47010;-78
2023/06/22 06:29:02;;;;;;;13.02;7.07;;;;;;;29.00;43.61;101620.41;143725;707;49002;-77
2023/06/22 06:31:28;;;;;;;12.15;6.68;;;;;;;28.99;41.89;101616.00;143724;587;47006;-77
2023/06/22 06:33:57;;;;;;;15.30;7.12;;;;;;;28.98;41.62;101617.97;143731;575;48002;-76
2023/06/22 06:36:23;;;;;;;8.35;6.57;;;;;;;29.00;40.57;101615.72;143726;581;47008;-77
2023/06/22 06:38:50;;;;;;;9.10;5.82;;;;;;;29.04;39.93;101621.47;143717;694;50008;-76
2023/06/22 06:41:16;;;;;;;13.52;6.20;;;;;;;29.09;40.26;101618.62;143731;573;47006;-76
2023/06/22 06:43:43;;;;;;;9.85;5.65;;;;;;;29.13;40.87;101625.16;143732;665;47011;-77
2023/06/22 06:46:10;;;;;;;13.10;5.53;;;;;;;29.18;40.22;101613.22;143729;599;47010;-77
2023/06/22 06:48:36;;;;;;;7.10;4.68;;;;;;;29.20;37.72;101622.03;143730;573;47004;-77
2023/06/22 06:51:02;;;;;;;13.52;5.30;;;;;;;29.24;38.27;101613.94;143730;751;47007;-78
2023/06/22 06:53:29;;;;;;;6.43;5.65;;;;;;;29.27;37.69;101605.84;143731;612;48000;-78
2023/06/22 06:55:55;;;;;;;10.05;6.75;;;;;;;29.31;37.62;101620.72;143725;586;47008;-77
2023/06/22 06:58:22;;;;;;;6.15;4.65;;;;;;;29.35;37.86;101620.94;143728;604;48002;-77
2023/06/22 07:00:49;;;;;;;8.95;5.03;;;;;;;29.35;38.07;101620.94;143731;592;47019;-77
2023/06/22 07:03:15;;;;;;;7.55;5.12;;;;;;;29.38;38.12;101616.78;143732;668;47002;-77
2023/06/22 07:05:42;;;;;;;7.43;5.12;;;;;;;29.39;37.72;101613.69;143730;589;47008;-77
2023/06/22 07:08:08;;;;;;;10.40;5.00;;;;;;;29.41;37.97;101616.13;143724;633;48004;-78
2023/06/22 07:10:35;;;;;;;6.68;4.50;;;;;;;29.43;38.06;101609.19;143730;566;47006;-77
2023/06/22 07:13:01;;;;;;;9.57;5.72;;;;;;;29.44;37.93;101608.06;143730;660;47002;-77
2023/06/22 07:15:27;;;;;;;5.37;4.55;;;;;;;29.49;38.41;101607.13;143731;574;47010;-78
2023/06/22 07:17:53;;;;;;;7.10;4.70;;;;;;;29.52;37.86;101612.06;143727;588;48004;-77
2023/06/22 07:20:20;;;;;;;9.00;5.40;;;;;;;29.55;37.37;101610.63;143726;683;47006;-77
2023/06/22 07:22:46;;;;;;;14.60;5.68;;;;;;;29.59;38.78;101609.69;143729;603;49002;-77
2023/06/22 07:25:17;;;;;;;9.45;6.12;;;;;;;29.61;39.76;101604.69;143730;578;47010;-76
2023/06/22 07:28:03;;;;;;;9.73;6.50;;;;;;;29.59;40.51;101608.88;143727;603;47931;-77
2023/06/22 07:30:31;;;;;;;12.63;5.65;;;;;;;29.64;40.63;101611.56;143731;601;47006;-75
2023/06/22 07:32:58;;;;;;;12.95;6.30;;;;;;;29.60;39.69;101605.81;143731;616;47004;-77
2023/06/22 07:35:25;;;;;;;15.13;6.18;;;;;;;29.61;39.80;101599.13;143731;588;47020;-76
2023/06/22 07:37:51;;;;;;;12.60;6.20;;;;;;;29.68;39.99;101603.47;143722;736;49004;-77
2023/06/22 07:40:17;;;;;;;7.00;5.68;;;;;;;29.69;39.04;101605.91;143729;568;47006;-77
2023/06/22 07:42:44;;;;;;;12.50;5.03;;;;;;;29.76;38.66;101598.03;143731;611;47005;-76
2023/06/22 07:45:12;;;;;;;9.52;5.45;;;;;;;29.81;38.54;101599.84;143723;610;48008;-77
2023/06/22 07:47:38;;;;;;;7.62;5.10;;;;;;;29.82;38.94;101598.72;143727;578;49002;-77
2023/06/22 07:50:06;;;;;;;12.73;5.18;;;;;;;29.88;39.15;101599.44;143729;586;48924;-77
2023/06/22 07:52:32;;;;;;;6.50;4.72;;;;;;;29.94;38.29;101604.56;143728;572;48002;-77
2023/06/22 07:54:59;;;;;;;6.32;4.97;;;;;;;30.00;38.59;101607.25;143729;668;47008;-77
2023/06/22 07:57:33;;;;;;;7.70;4.70;;;;;;;30.02;37.59;101610.53;143728;589;47004;-76
2023/06/22 08:00:11;;;;;;;6.40;4.65;;;;;;;30.07;37.75;101605.69;143722;598;51923;-77
2023/06/22 08:02:37;;;;;;;6.20;5.60;;;;;;;30.14;40.53;101607.25;143734;568;47006;-79
2023/06/22 08:05:04;;;;;;;5.93;5.32;;;;;;;30.17;41.56;101610.19;143729;574;47011;-77
2023/06/22 08:07:32;;;;;;;8.02;5.62;;;;;;;30.22;41.36;101612.03;143728;635;47012;-77
2023/06/22 08:09:59;;;;;;;11.95;5.47;;;;;;;30.28;40.41;101609.97;143722;591;48924;-77
2023/06/22 08:12:25;;;;;;;7.32;4.80;;;;;;;30.32;38.91;101609.06;143731;589;47004;-76
2023/06/22 08:14:52;;;;;;;8.30;4.72;;;;;;;30.35;38.64;101610.38;143728;607;47010;-77
2023/06/22 08:17:18;;;;;;;6.03;5.10;;;;;;;30.37;38.89;101611.69;143726;560;48004;-77
2023/06/22 08:19:44;;;;;;;8.60;5.60;;;;;;;30.43;40.25;101611.56;143727;590;48008;-76
2023/06/22 08:22:10;;;;;;;6.65;5.53;;;;;;;30.48;40.54;101617.81;143732;608;48002;-77
2023/06/22 08:24:37;;;;;;;7.05;4.82;;;;;;;30.52;40.72;101613.28;143728;582;48926;-76
2023/06/22 08:27:03;;;;;;;7.18;5.28;;;;;;;30.53;41.50;101603.84;143730;575;47006;-77
2023/06/22 08:29:30;;;;;;;6.95;6.18;;;;;;;30.56;43.24;101602.41;143731;614;47008;-77
2023/06/22 08:31:56;;;;;;;7.85;5.97;;;;;;;30.56;43.48;101616.28;143731;597;47004;-78
2023/06/22 08:34:23;;;;;;;7.53;6.12;;;;;;;30.55;44.17;101614.62;143723;611;47011;-76
2023/06/22 08:36:52;;;;;;;8.40;6.60;;;;;;;30.61;42.92;101615.34;143731;584;47006;-77
2023/06/22 08:39:20;;;;;;;6.43;5.65;;;;;;;30.65;42.31;101610.81;143728;573;47008;-77
2023/06/22 08:41:49;;;;;;;8.38;6.03;;;;;;;30.67;41.19;101614.09;143731;584;47008;-76
2023/06/22 08:44:18;;;;;;;7.40;5.12;;;;;;;30.68;38.94;101608.25;143726;581;48004;-76
2023/06/22 08:46:45;;;;;;;6.55;4.90;;;;;;;30.74;38.13;101605.31;143731;574;47006;-75
2023/06/22 08:49:11;;;;;;;5.28;4.62;;;;;;;30.76;36.77;101605.81;143719;577;49004;-78
2023/06/22 08:51:37;;;;;;;7.95;4.95;;;;;;;30.79;36.39;101611.59;143727;581;47004;-77
2023/06/22 08:54:04;;;;;;;6.05;5.00;;;;;;;30.86;35.83;101611.12;143729;573;48004;-76
2023/06/22 08:56:31;;;;;;;8.77;4.85;;;;;;;30.92;35.60;101597.97;143729;578;47007;-76
2023/06/22 08:58:57;;;;;;;5.55;5.05;;;;;;;30.96;35.66;101601.75;143728;619;47008;-77
2023/06/22 09:01:23;;;;;;;5.22;4.65;;;;;;;30.99;35.16;101598.31;143728;628;47008;-76
2023/06/22 09:03:54;;;;;;;6.68;4.53;;;;;;;30.88;34.72;101600.56;143729;659;47926;-76
2023/06/22 09:06:21;;;;;;;6.45;4.60;;;;;;;30.90;33.77;101603.00;143728;576;47006;-77
2023/06/22 09:08:48;;;;;;;5.18;4.22;;;;;;;30.90;34.92;101605.78;143732;630;46008;-74
2023/06/22 09:11:15;;;;;;;6.03;4.80;;;;;;;30.98;36.95;101599.44;143732;594;47006;-78
2023/06/22 09:13:41;;;;;;;6.85;5.03;;;;;;;31.07;36.07;101602.28;143726;682;47012;-77
2023/06/22 09:16:08;;;;;;;7.07;4.75;;;;;;;31.07;34.48;101605.88;143726;646;47006;-76
2023/06/22 09:18:37;;;;;;;5.28;4.03;;;;;;;31.16;34.43;101605.97;143725;629;47008;-76
2023/06/22 09:21:03;;;;;;;4.43;3.78;;;;;;;31.20;32.59;101608.91;143729;574;47004;-76
2023/06/22 09:23:30;;;;;;;6.22;4.47;;;;;;;31.21;33.92;101607.78;143706;618;50010;-77
2023/06/22 09:25:56;;;;;;;7.43;4.78;;;;;;;31.28;34.96;101602.59;143727;600;47006;-75
2023/06/22 09:28:23;;;;;;;5.00;4.50;;;;;;;31.33;35.71;101602.44;143728;623;48008;-77
2023/06/22 09:30:49;;;;;;;6.22;4.37;;;;;;;31.40;33.81;101610.34;143729;572;47004;-77
2023/06/22 09:33:16;;;;;;;5.50;4.15;;;;;;;31.50;34.55;101600.91;143728;583;47011;-75
2023/06/22 09:35:42;;;;;;;5.00;4.43;;;;;;;31.54;34.41;101601.88;143728;568;47006;-76
2023/06/22 09:38:08;;;;;;;8.07;5.43;;;;;;;31.63;32.94;101605.53;143725;622;47924;-75
2023/06/22 09:40:39;;;;;;;4.53;3.65;;;;;;;31.70;32.59;101599.50;143731;593;47006;-75
2023/06/22 09:43:06;;;;;;;4.97;3.70;;;;;;;31.74;32.42;101600.53;143728;589;47013;-75
2023/06/22 09:45:32;;;;;;;6.30;3.47;;;;;;;31.77;31.47;101596.28;143725;630;47006;-80
2023/06/22 09:47:59;;;;;;;5.72;3.80;;;;;;;31.72;31.33;101584.16;143718;589;48009;-77
2023/06/22 09:50:25;;;;;;;3.95;3.53;;;;;;;31.84;31.53;101582.75;143732;567;47004;-77
2023/06/22 09:52:54;;;;;;;5.68;3.95;;;;;;;31.93;32.04;101583.56;143718;589;49010;-78
2023/06/22 09:55:21;;;;;;;6.30;4.78;;;;;;;31.98;31.56;101580.62;143729;588;47006;-78
2023/06/22 09:57:48;;;;;;;4.00;3.60;;;;;;;32.05;31.44;101580.16;143728;613;47008;-78
2023/06/22 10:00:17;;;;;;;5.25;3.80;;;;;;;32.12;30.33;101574.09;143731;575;47006;-78
2023/06/22 10:02:43;;;;;;;4.62;4.20;;;;;;;32.13;30.97;101567.41;143727;592;47011;-79
2023/06/22 10:05:10;;;;;;;4.93;4.15;;;;;;;32.16;30.59;101566.75;143723;763;48930;-78
2023/06/22 10:07:39;;;;;;;5.03;3.65;;;;;;;32.21;31.56;101577.72;143729;572;47008;-79
2023/06/22 10:10:07;;;;;;;5.75;4.00;;;;;;;32.18;30.65;101575.59;143731;714;47006;-79
2023/06/22 10:12:33;;;;;;;5.55;4.12;;;;;;;32.17;31.35;101568.41;143724;597;46023;-78
2023/06/22 10:15:00;;;;;;;5.37;4.37;;;;;;;32.23;31.96;101569.84;143725;604;48930;-77
2023/06/22 10:17:26;;;;;;;4.50;4.07;;;;;;;32.27;31.61;101572.84;143729;580;47020;-78
2023/06/22 10:19:52;;;;;;;3.97;3.65;;;;;;;32.25;30.27;101573.13;143727;575;47004;-76
2023/06/22 10:22:19;;;;;;;4.10;3.70;;;;;;;32.29;31.68;101568.59;143725;572;48010;-77
2023/06/22 10:24:46;;;;;;;4.18;3.78;;;;;;;32.35;31.52;101560.91;143725;603;47931;-79
2023/06/22 10:27:12;;;;;;;5.30;4.05;;;;;;;32.38;30.33;101570.56;143724;581;47009;-78
2023/06/22 10:29:38;;;;;;;6.47;3.78;;;;;;;32.43;31.45;101574.00;143729;599;47004;-76
2023/06/22 10:32:06;;;;;;;4.70;4.15;;;;;;;32.41;30.95;101570.72;143723;580;47010;-79
2023/06/22 10:34:32;;;;;;;4.18;3.53;;;;;;;32.44;31.24;101563.66;143727;680;47013;-78
2023/06/22 10:36:58;;;;;;;4.90;3.85;;;;;;;32.45;30.88;101556.97;143721;575;47008;-77
2023/06/22 10:39:25;;;;;;;4.75;4.20;;;;;;;32.50;31.78;101556.81;143730;600;47005;-77
2023/06/22 10:41:51;;;;;;;5.55;4.05;;;;;;;32.50;31.00;101551.25;143728;573;47013;-77
2023/06/22 10:44:17;;;;;;;4.20;3.78;;;;;;;32.39;30.90;101558.31;143727;607;47018;-78
2023/06/22 10:46:44;;;;;;;4.68;3.80;;;;;;;32.33;31.46;101557.62;143727;566;47008;-80
2023/06/22 10:49:10;;;;;;;4.97;4.47;;;;;;;32.34;32.13;101557.31;143729;597;47010;-78
2023/06/22 10:51:37;;;;;;;4.70;4.25;;;;;;;32.33;31.80;101552.06;143727;623;47010;-77
2023/06/22 10:54:04;;;;;;;4.37;3.95;;;;;;;32.30;31.65;101550.75;143726;572;47006;-77
2023/06/22 10:56:30;;;;;;;8.05;4.25;;;;;;;32.33;32.02;101549.28;143725;652;47009;-80
2023/06/22 10:58:57;;;;;;;5.12;4.03;;;;;;;32.37;32.42;101541.94;143710;581;50011;-77
2023/06/22 11:01:23;;;;;;;6.68;4.25;;;;;;;32.34;32.62;101540.62;143722;614;48010;-76
2023/06/22 11:03:49;;;;;;;4.90;4.10;;;;;;;32.41;32.46;101539.31;143728;626;47006;-75
2023/06/22 11:06:16;;;;;;;5.40;4.22;;;;;;;32.42;32.65;101544.56;143718;592;48008;-77
2023/06/22 11:08:45;;;;;;;4.20;3.80;;;;;;;32.44;31.55;101539.47;143731;595;47004;-79
2023/06/22 11:11:11;;;;;;;3.80;3.50;;;;;;;32.47;31.38;101547.16;143727;579;48011;-77
2023/06/22 11:13:38;;;;;;;3.83;3.53;;;;;;;32.38;31.00;101537.19;143728;599;47006;-79
2023/06/22 11:16:05;;;;;;;4.00;3.20;;;;;;;32.40;30.27;101546.00;143730;595;47008;-78
2023/06/22 11:18:33;;;;;;;4.57;3.83;;;;;;;32.47;31.02;101546.34;143731;572;47004;-79
2023/06/22 11:21:00;;;;;;;4.00;3.50;;;;;;;32.51;30.69;101547.31;143731;633;47010;-80
2023/06/22 11:23:27;;;;;;;4.45;3.92;;;;;;;32.56;31.10;101552.72;143727;570;47006;-76